sensor_id;sensor_type;location;lat;lon;timestamp;temperature;humidity
20714;DHT22;10518;50.742;4.226;2024-03-08T00:00:05;6.30;99.90
20714;DHT22;10518;50.742;4.226;2024-03-08T00:02:55;6.20;99.90
20714;DHT22;10518;50.742;4.226;2024-03-08T00:05:20;6.10;99.90
20714;DHT22;10518;50.742;4.226;2024-03-08T00:07:46;6.20;99.90
20714;DHT22;10518;50.742;4.226;2024-03-08T00:10:13;6.20;99.90
20714;DHT22;10518;50.742;4.226;2024-03-08T00:12:43;6.20;99.90
20714;DHT22;10518;50.742;4.226;2024-03-08T00:15:09;6.40;99.90
20714;DHT22;10518;50.742;4.226;2024-03-08T00:17:36;6.40;99.90
20714;DHT22;10518;50.742;4.226;2024-03-08T00:20:02;6.30;99.90
20714;DHT22;10518;50.742;4.226;2024-03-08T00:22:31;6.30;99.90
20714;DHT22;10518;50.742;4.226;2024-03-08T00:24:57;6.30;99.90
20714;DHT22;10518;50.742;4.226;2024-03-08T00:27:23;6.30;99.90
20714;DHT22;10518;50.742;4.226;2024-03-08T00:29:48;6.40;99.90
20714;DHT22;10518;50.742;4.226;2024-03-08T00:32:14;6.30;99.90
20714;DHT22;10518;50.742;4.226;2024-03-08T00:34:39;6.30;99.90
20714;DHT22;10518;50.742;4.226;2024-03-08T00:37:05;6.30;99.90
20714;DHT22;10518;50.742;4.226;2024-03-08T00:39:31;6.20;99.90
20714;DHT22;10518;50.742;4.226;2024-03-08T00:41:56;6.30;99.90
20714;DHT22;10518;50.742;4.226;2024-03-08T00:44:22;6.20;99.90
20714;DHT22;10518;50.742;4.226;2024-03-08T00:46:48;6.20;99.90
20714;DHT22;10518;50.742;4.226;2024-03-08T00:49:13;6.00;99.90
20714;DHT22;10518;50.742;4.226;2024-03-08T00:51:39;6.20;99.90
20714;DHT22;10518;50.742;4.226;2024-03-08T00:54:04;6.10;99.90
20714;DHT22;10518;50.742;4.226;2024-03-08T00:56:30;6.10;99.90
20714;DHT22;10518;50.742;4.226;2024-03-08T00:58:55;6.30;99.90
20714;DHT22;10518;50.742;4.226;2024-03-08T01:01:21;6.00;99.90
20714;DHT22;10518;50.742;4.226;2024-03-08T01:03:47;6.00;99.90
20714;DHT22;10518;50.742;4.226;2024-03-08T01:06:14;6.00;99.90
20714;DHT22;10518;50.742;4.226;2024-03-08T01:08:40;6.00;99.90
20714;DHT22;10518;50.742;4.226;2024-03-08T01:11:08;6.00;99.90
20714;DHT22;10518;50.742;4.226;2024-03-08T01:13:34;6.00;99.90
20714;DHT22;10518;50.742;4.226;2024-03-08T01:16:00;6.00;99.90
20714;DHT22;10518;50.742;4.226;2024-03-08T01:18:25;6.00;99.90
20714;DHT22;10518;50.742;4.226;2024-03-08T01:20:51;6.10;99.90
20714;DHT22;10518;50.742;4.226;2024-03-08T01:23:16;5.90;99.90
20714;DHT22;10518;50.742;4.226;2024-03-08T01:25:42;5.80;99.90
20714;DHT22;10518;50.742;4.226;2024-03-08T01:28:09;5.90;99.90
20714;DHT22;10518;50.742;4.226;2024-03-08T01:30:35;5.80;99.90
20714;DHT22;10518;50.742;4.226;2024-03-08T01:33:02;5.80;99.90
20714;DHT22;10518;50.742;4.226;2024-03-08T01:35:28;5.80;99.90
20714;DHT22;10518;50.742;4.226;2024-03-08T01:37:53;5.80;99.90
20714;DHT22;10518;50.742;4.226;2024-03-08T01:40:19;5.80;99.90
20714;DHT22;10518;50.742;4.226;2024-03-08T01:42:45;5.70;99.90
20714;DHT22;10518;50.742;4.226;2024-03-08T01:45:11;5.70;99.90
20714;DHT22;10518;50.742;4.226;2024-03-08T01:47:37;5.70;99.90
20714;DHT22;10518;50.742;4.226;2024-03-08T01:50:03;5.70;99.90
20714;DHT22;10518;50.742;4.226;2024-03-08T01:52:30;5.70;99.90
20714;DHT22;10518;50.742;4.226;2024-03-08T01:54:59;5.70;99.90
20714;DHT22;10518;50.742;4.226;2024-03-08T01:57:27;5.70;99.90
20714;DHT22;10518;50.742;4.226;2024-03-08T01:59:53;5.60;99.90
20714;DHT22;10518;50.742;4.226;2024-03-08T02:02:21;5.60;99.90
20714;DHT22;10518;50.742;4.226;2024-03-08T02:04:48;5.70;99.90
20714;DHT22;10518;50.742;4.226;2024-03-08T02:07:13;5.60;99.90
20714;DHT22;10518;50.742;4.226;2024-03-08T02:09:39;5.70;99.90
20714;DHT22;10518;50.742;4.226;2024-03-08T02:12:05;5.60;99.90
20714;DHT22;10518;50.742;4.226;2024-03-08T02:14:31;5.60;99.90
20714;DHT22;10518;50.742;4.226;2024-03-08T02:17:00;5.60;99.90
20714;DHT22;10518;50.742;4.226;2024-03-08T02:19:26;5.70;99.90
20714;DHT22;10518;50.742;4.226;2024-03-08T02:21:52;5.50;99.90
20714;DHT22;10518;50.742;4.226;2024-03-08T02:24:17;5.50;99.90
20714;DHT22;10518;50.742;4.226;2024-03-08T02:26:43;5.70;99.90
20714;DHT22;10518;50.742;4.226;2024-03-08T02:29:09;5.40;99.90
20714;DHT22;10518;50.742;4.226;2024-03-08T02:31:34;5.40;99.90
20714;DHT22;10518;50.742;4.226;2024-03-08T02:34:00;5.40;99.90
20714;DHT22;10518;50.742;4.226;2024-03-08T02:36:26;5.20;99.90
20714;DHT22;10518;50.742;4.226;2024-03-08T02:38:51;5.30;99.90
20714;DHT22;10518;50.742;4.226;2024-03-08T02:41:17;5.30;99.90
20714;DHT22;10518;50.742;4.226;2024-03-08T02:43:42;5.30;99.90
20714;DHT22;10518;50.742;4.226;2024-03-08T02:46:09;5.30;99.90
20714;DHT22;10518;50.742;4.226;2024-03-08T02:48:35;5.40;99.90
20714;DHT22;10518;50.742;4.226;2024-03-08T02:51:01;5.40;99.90
20714;DHT22;10518;50.742;4.226;2024-03-08T02:53:27;5.10;99.90
20714;DHT22;10518;50.742;4.226;2024-03-08T02:55:53;5.30;99.90
20714;DHT22;10518;50.742;4.226;2024-03-08T02:58:19;5.10;99.90
20714;DHT22;10518;50.742;4.226;2024-03-08T03:00:44;5.00;99.90
20714;DHT22;10518;50.742;4.226;2024-03-08T03:03:10;5.10;99.90
20714;DHT22;10518;50.742;4.226;2024-03-08T03:05:36;5.10;99.90
20714;DHT22;10518;50.742;4.226;2024-03-08T03:08:01;5.10;99.90
20714;DHT22;10518;50.742;4.226;2024-03-08T03:10:29;5.10;99.90
20714;DHT22;10518;50.742;4.226;2024-03-08T03:12:54;5.10;99.90
20714;DHT22;10518;50.742;4.226;2024-03-08T03:15:20;5.00;99.90
20714;DHT22;10518;50.742;4.226;2024-03-08T03:17:47;5.00;99.90
20714;DHT22;10518;50.742;4.226;2024-03-08T03:20:13;4.90;99.90
20714;DHT22;10518;50.742;4.226;2024-03-08T03:22:40;4.90;99.90
20714;DHT22;10518;50.742;4.226;2024-03-08T03:25:07;4.90;99.90
20714;DHT22;10518;50.742;4.226;2024-03-08T03:27:33;4.90;99.90
20714;DHT22;10518;50.742;4.226;2024-03-08T03:29:59;4.90;99.90
20714;DHT22;10518;50.742;4.226;2024-03-08T03:32:44;4.80;99.90
20714;DHT22;10518;50.742;4.226;2024-03-08T03:35:13;4.80;99.90
20714;DHT22;10518;50.742;4.226;2024-03-08T03:37:40;4.90;99.90
20714;DHT22;10518;50.742;4.226;2024-03-08T03:40:08;4.80;99.90
20714;DHT22;10518;50.742;4.226;2024-03-08T03:42:34;4.90;99.90
20714;DHT22;10518;50.742;4.226;2024-03-08T03:45:00;4.90;99.90
20714;DHT22;10518;50.742;4.226;2024-03-08T03:47:25;4.80;99.90
20714;DHT22;10518;50.742;4.226;2024-03-08T03:49:52;4.70;99.90
20714;DHT22;10518;50.742;4.226;2024-03-08T03:52:19;4.70;99.90
20714;DHT22;10518;50.742;4.226;2024-03-08T03:54:45;4.70;99.90
20714;DHT22;10518;50.742;4.226;2024-03-08T03:57:10;4.80;99.90
20714;DHT22;10518;50.742;4.226;2024-03-08T03:59:37;4.70;99.90
20714;DHT22;10518;50.742;4.226;2024-03-08T04:02:03;4.70;99.90
20714;DHT22;10518;50.742;4.226;2024-03-08T04:04:29;4.90;99.90
20714;DHT22;10518;50.742;4.226;2024-03-08T04:06:55;4.70;99.90
20714;DHT22;10518;50.742;4.226;2024-03-08T04:09:20;4.70;99.90
20714;DHT22;10518;50.742;4.226;2024-03-08T04:11:48;4.70;99.90
20714;DHT22;10518;50.742;4.226;2024-03-08T04:14:13;4.70;99.90
20714;DHT22;10518;50.742;4.226;2024-03-08T04:16:39;4.70;99.90
20714;DHT22;10518;50.742;4.226;2024-03-08T04:19:04;4.70;99.90
20714;DHT22;10518;50.742;4.226;2024-03-08T04:21:30;4.70;99.90
20714;DHT22;10518;50.742;4.226;2024-03-08T04:23:56;4.80;99.90
20714;DHT22;10518;50.742;4.226;2024-03-08T04:26:22;4.90;99.90
20714;DHT22;10518;50.742;4.226;2024-03-08T04:28:47;4.60;99.90
20714;DHT22;10518;50.742;4.226;2024-03-08T04:31:13;4.50;99.90
20714;DHT22;10518;50.742;4.226;2024-03-08T04:33:39;4.60;99.90
20714;DHT22;10518;50.742;4.226;2024-03-08T04:36:05;4.60;99.90
20714;DHT22;10518;50.742;4.226;2024-03-08T04:38:30;4.50;99.90
20714;DHT22;10518;50.742;4.226;2024-03-08T04:40:57;4.50;99.90
20714;DHT22;10518;50.742;4.226;2024-03-08T04:43:23;4.50;99.90
20714;DHT22;10518;50.742;4.226;2024-03-08T04:45:52;4.60;99.90
20714;DHT22;10518;50.742;4.226;2024-03-08T04:48:17;4.40;99.90
20714;DHT22;10518;50.742;4.226;2024-03-08T04:50:43;4.40;99.90
20714;DHT22;10518;50.742;4.226;2024-03-08T04:53:10;4.40;99.90
20714;DHT22;10518;50.742;4.226;2024-03-08T04:55:35;4.40;99.90
20714;DHT22;10518;50.742;4.226;2024-03-08T04:58:03;4.30;99.90
20714;DHT22;10518;50.742;4.226;2024-03-08T05:00:29;4.30;99.90
20714;DHT22;10518;50.742;4.226;2024-03-08T05:02:55;4.30;99.90
20714;DHT22;10518;50.742;4.226;2024-03-08T05:05:21;4.40;99.90
20714;DHT22;10518;50.742;4.226;2024-03-08T05:07:48;4.40;99.90
20714;DHT22;10518;50.742;4.226;2024-03-08T05:10:13;4.40;99.90
20714;DHT22;10518;50.742;4.226;2024-03-08T05:12:45;4.20;99.90
20714;DHT22;10518;50.742;4.226;2024-03-08T05:15:11;4.20;99.90
20714;DHT22;10518;50.742;4.226;2024-03-08T05:17:36;4.20;99.90
20714;DHT22;10518;50.742;4.226;2024-03-08T05:20:02;4.20;99.90
20714;DHT22;10518;50.742;4.226;2024-03-08T05:22:29;4.20;99.90
20714;DHT22;10518;50.742;4.226;2024-03-08T05:24:55;4.20;99.90
20714;DHT22;10518;50.742;4.226;2024-03-08T05:27:20;4.20;99.90
20714;DHT22;10518;50.742;4.226;2024-03-08T05:29:46;4.20;99.90
20714;DHT22;10518;50.742;4.226;2024-03-08T05:32:12;4.20;99.90
20714;DHT22;10518;50.742;4.226;2024-03-08T05:34:37;4.30;99.90
20714;DHT22;10518;50.742;4.226;2024-03-08T05:37:04;4.20;99.90
20714;DHT22;10518;50.742;4.226;2024-03-08T05:39:29;4.20;99.90
20714;DHT22;10518;50.742;4.226;2024-03-08T05:41:55;4.10;99.90
20714;DHT22;10518;50.742;4.226;2024-03-08T05:44:21;4.10;99.90
20714;DHT22;10518;50.742;4.226;2024-03-08T05:46:47;4.10;99.90
20714;DHT22;10518;50.742;4.226;2024-03-08T05:49:12;4.30;99.90
20714;DHT22;10518;50.742;4.226;2024-03-08T05:51:39;4.20;99.90
20714;DHT22;10518;50.742;4.226;2024-03-08T05:54:07;4.20;99.90
20714;DHT22;10518;50.742;4.226;2024-03-08T05:56:35;4.20;99.90
20714;DHT22;10518;50.742;4.226;2024-03-08T05:59:01;4.00;99.90
20714;DHT22;10518;50.742;4.226;2024-03-08T06:01:27;4.00;99.90
20714;DHT22;10518;50.742;4.226;2024-03-08T06:03:54;4.20;99.90
20714;DHT22;10518;50.742;4.226;2024-03-08T06:06:21;4.10;99.90
20714;DHT22;10518;50.742;4.226;2024-03-08T06:08:48;4.00;99.90
20714;DHT22;10518;50.742;4.226;2024-03-08T06:11:15;4.00;99.90
20714;DHT22;10518;50.742;4.226;2024-03-08T06:13:40;4.00;99.90
20714;DHT22;10518;50.742;4.226;2024-03-08T06:16:06;4.00;99.90
20714;DHT22;10518;50.742;4.226;2024-03-08T06:18:34;4.00;99.90
20714;DHT22;10518;50.742;4.226;2024-03-08T06:21:03;4.00;99.90
20714;DHT22;10518;50.742;4.226;2024-03-08T06:23:31;3.90;99.90
20714;DHT22;10518;50.742;4.226;2024-03-08T06:25:57;3.90;99.90
20714;DHT22;10518;50.742;4.226;2024-03-08T06:28:23;4.00;99.90
20714;DHT22;10518;50.742;4.226;2024-03-08T06:30:48;4.00;99.90
20714;DHT22;10518;50.742;4.226;2024-03-08T06:33:16;4.00;99.90
20714;DHT22;10518;50.742;4.226;2024-03-08T06:35:41;4.00;99.90
20714;DHT22;10518;50.742;4.226;2024-03-08T06:38:07;4.00;99.90
20714;DHT22;10518;50.742;4.226;2024-03-08T06:40:32;4.00;99.90
20714;DHT22;10518;50.742;4.226;2024-03-08T06:42:58;4.00;99.90
20714;DHT22;10518;50.742;4.226;2024-03-08T06:45:24;4.00;99.90
20714;DHT22;10518;50.742;4.226;2024-03-08T06:47:51;4.10;99.90
20714;DHT22;10518;50.742;4.226;2024-03-08T06:50:17;4.10;99.90
20714;DHT22;10518;50.742;4.226;2024-03-08T06:52:43;4.20;99.90
20714;DHT22;10518;50.742;4.226;2024-03-08T06:55:10;4.40;99.90
20714;DHT22;10518;50.742;4.226;2024-03-08T06:57:39;4.50;99.90
20714;DHT22;10518;50.742;4.226;2024-03-08T07:00:09;4.50;99.90
20714;DHT22;10518;50.742;4.226;2024-03-08T07:02:37;4.60;99.90
20714;DHT22;10518;50.742;4.226;2024-03-08T07:05:05;4.60;99.90
20714;DHT22;10518;50.742;4.226;2024-03-08T07:07:31;4.60;99.90
20714;DHT22;10518;50.742;4.226;2024-03-08T07:09:57;4.60;99.90
20714;DHT22;10518;50.742;4.226;2024-03-08T07:12:23;4.60;99.90
20714;DHT22;10518;50.742;4.226;2024-03-08T07:14:49;4.60;99.90
20714;DHT22;10518;50.742;4.226;2024-03-08T07:17:14;4.70;99.90
20714;DHT22;10518;50.742;4.226;2024-03-08T07:19:41;4.80;99.90
20714;DHT22;10518;50.742;4.226;2024-03-08T07:22:07;4.80;99.90
20714;DHT22;10518;50.742;4.226;2024-03-08T07:24:36;4.90;99.90
20714;DHT22;10518;50.742;4.226;2024-03-08T07:27:19;4.90;99.90
20714;DHT22;10518;50.742;4.226;2024-03-08T07:29:45;5.00;99.90
20714;DHT22;10518;50.742;4.226;2024-03-08T07:32:11;5.00;99.90
20714;DHT22;10518;50.742;4.226;2024-03-08T07:34:57;5.00;99.90
20714;DHT22;10518;50.742;4.226;2024-03-08T07:37:24;5.10;99.90
20714;DHT22;10518;50.742;4.226;2024-03-08T07:39:49;5.20;99.90
20714;DHT22;10518;50.742;4.226;2024-03-08T07:42:15;5.20;99.90
20714;DHT22;10518;50.742;4.226;2024-03-08T07:44:42;5.30;99.90
20714;DHT22;10518;50.742;4.226;2024-03-08T07:47:08;5.40;99.90
20714;DHT22;10518;50.742;4.226;2024-03-08T07:49:35;5.50;99.90
20714;DHT22;10518;50.742;4.226;2024-03-08T07:52:03;5.70;99.90
20714;DHT22;10518;50.742;4.226;2024-03-08T07:54:30;5.50;99.90
20714;DHT22;10518;50.742;4.226;2024-03-08T07:56:55;5.70;99.90
20714;DHT22;10518;50.742;4.226;2024-03-08T07:59:22;5.70;99.90
20714;DHT22;10518;50.742;4.226;2024-03-08T08:01:48;5.80;99.90
20714;DHT22;10518;50.742;4.226;2024-03-08T08:04:13;6.00;99.90
20714;DHT22;10518;50.742;4.226;2024-03-08T08:06:40;6.00;99.90
20714;DHT22;10518;50.742;4.226;2024-03-08T08:09:08;6.00;99.90
20714;DHT22;10518;50.742;4.226;2024-03-08T08:11:41;6.10;99.90
20714;DHT22;10518;50.742;4.226;2024-03-08T08:14:09;6.10;99.90
20714;DHT22;10518;50.742;4.226;2024-03-08T08:16:36;6.20;99.90
20714;DHT22;10518;50.742;4.226;2024-03-08T08:19:07;6.20;99.90
20714;DHT22;10518;50.742;4.226;2024-03-08T08:21:36;6.40;99.90
20714;DHT22;10518;50.742;4.226;2024-03-08T08:24:05;6.40;99.90
20714;DHT22;10518;50.742;4.226;2024-03-08T08:26:31;6.50;99.90
20714;DHT22;10518;50.742;4.226;2024-03-08T08:28:59;6.60;99.90
20714;DHT22;10518;50.742;4.226;2024-03-08T08:31:25;6.60;99.90
20714;DHT22;10518;50.742;4.226;2024-03-08T08:33:51;6.70;99.90
20714;DHT22;10518;50.742;4.226;2024-03-08T08:36:23;6.60;99.90
20714;DHT22;10518;50.742;4.226;2024-03-08T08:38:49;6.80;99.90
20714;DHT22;10518;50.742;4.226;2024-03-08T08:41:15;6.90;99.90
20714;DHT22;10518;50.742;4.226;2024-03-08T08:43:42;6.90;99.90
20714;DHT22;10518;50.742;4.226;2024-03-08T08:46:10;6.80;99.90
20714;DHT22;10518;50.742;4.226;2024-03-08T08:48:39;7.00;99.90
20714;DHT22;10518;50.742;4.226;2024-03-08T08:51:09;7.20;99.90
20714;DHT22;10518;50.742;4.226;2024-03-08T08:53:38;7.40;99.90
20714;DHT22;10518;50.742;4.226;2024-03-08T08:56:06;7.50;99.90
20714;DHT22;10518;50.742;4.226;2024-03-08T08:58:33;7.60;99.90
20714;DHT22;10518;50.742;4.226;2024-03-08T09:00:59;7.60;99.90
20714;DHT22;10518;50.742;4.226;2024-03-08T09:03:25;7.60;99.90
20714;DHT22;10518;50.742;4.226;2024-03-08T09:05:52;7.60;99.90
20714;DHT22;10518;50.742;4.226;2024-03-08T09:08:18;7.70;99.90
20714;DHT22;10518;50.742;4.226;2024-03-08T09:10:44;7.70;99.90
20714;DHT22;10518;50.742;4.226;2024-03-08T09:13:10;7.80;99.90
20714;DHT22;10518;50.742;4.226;2024-03-08T09:15:37;7.80;99.90
20714;DHT22;10518;50.742;4.226;2024-03-08T09:18:06;8.00;99.90
20714;DHT22;10518;50.742;4.226;2024-03-08T09:20:31;8.10;99.90
20714;DHT22;10518;50.742;4.226;2024-03-08T09:22:57;8.20;99.90
20714;DHT22;10518;50.742;4.226;2024-03-08T09:25:23;8.40;99.90
20714;DHT22;10518;50.742;4.226;2024-03-08T09:27:49;8.40;99.90
20714;DHT22;10518;50.742;4.226;2024-03-08T09:30:15;8.40;99.90
20714;DHT22;10518;50.742;4.226;2024-03-08T09:32:42;8.50;99.90
20714;DHT22;10518;50.742;4.226;2024-03-08T09:35:09;8.50;99.90
20714;DHT22;10518;50.742;4.226;2024-03-08T09:37:34;8.60;99.90
20714;DHT22;10518;50.742;4.226;2024-03-08T09:40:00;8.60;99.90
20714;DHT22;10518;50.742;4.226;2024-03-08T09:42:30;8.80;99.90
20714;DHT22;10518;50.742;4.226;2024-03-08T09:44:57;8.80;99.90
20714;DHT22;10518;50.742;4.226;2024-03-08T09:47:25;9.00;99.90
20714;DHT22;10518;50.742;4.226;2024-03-08T09:49:54;8.90;99.90
20714;DHT22;10518;50.742;4.226;2024-03-08T09:52:20;9.00;99.90
20714;DHT22;10518;50.742;4.226;2024-03-08T09:54:46;9.00;99.90
20714;DHT22;10518;50.742;4.226;2024-03-08T09:57:12;9.00;99.90
20714;DHT22;10518;50.742;4.226;2024-03-08T09:59:38;9.10;99.90
20714;DHT22;10518;50.742;4.226;2024-03-08T10:02:03;9.20;99.90
20714;DHT22;10518;50.742;4.226;2024-03-08T10:04:30;9.20;99.90
20714;DHT22;10518;50.742;4.226;2024-03-08T10:06:59;9.20;99.90
20714;DHT22;10518;50.742;4.226;2024-03-08T10:09:25;9.20;99.90
20714;DHT22;10518;50.742;4.226;2024-03-08T10:11:59;9.20;99.90
20714;DHT22;10518;50.742;4.226;2024-03-08T10:14:28;9.20;99.90
20714;DHT22;10518;50.742;4.226;2024-03-08T10:16:54;9.40;99.90
20714;DHT22;10518;50.742;4.226;2024-03-08T10:19:20;9.40;99.90
20714;DHT22;10518;50.742;4.226;2024-03-08T10:21:49;9.50;99.90
20714;DHT22;10518;50.742;4.226;2024-03-08T10:24:15;9.50;99.90
20714;DHT22;10518;50.742;4.226;2024-03-08T10:26:40;9.60;99.90
20714;DHT22;10518;50.742;4.226;2024-03-08T10:29:09;9.80;99.90
20714;DHT22;10518;50.742;4.226;2024-03-08T10:31:34;9.80;99.90
20714;DHT22;10518;50.742;4.226;2024-03-08T10:34:00;9.80;99.90
20714;DHT22;10518;50.742;4.226;2024-03-08T10:36:26;9.80;99.90
20714;DHT22;10518;50.742;4.226;2024-03-08T10:38:53;10.00;99.90
20714;DHT22;10518;50.742;4.226;2024-03-08T10:41:19;9.90;99.90
20714;DHT22;10518;50.742;4.226;2024-03-08T10:47:00;9.90;99.90
20714;DHT22;10518;50.742;4.226;2024-03-08T10:49:59;10.00;99.90
20714;DHT22;10518;50.742;4.226;2024-03-08T10:52:29;10.10;99.90
20714;DHT22;10518;50.742;4.226;2024-03-08T10:54:56;10.20;99.90
20714;DHT22;10518;50.742;4.226;2024-03-08T10:57:22;10.30;99.90
20714;DHT22;10518;50.742;4.226;2024-03-08T10:59:49;10.40;99.90
20714;DHT22;10518;50.742;4.226;2024-03-08T11:02:17;10.40;99.90
20714;DHT22;10518;50.742;4.226;2024-03-08T11:04:48;10.50;99.90
20714;DHT22;10518;50.742;4.226;2024-03-08T11:07:14;10.60;99.90
20714;DHT22;10518;50.742;4.226;2024-03-08T11:09:43;10.70;99.90
20714;DHT22;10518;50.742;4.226;2024-03-08T11:12:27;10.70;99.90
20714;DHT22;10518;50.742;4.226;2024-03-08T11:14:59;10.80;99.90
20714;DHT22;10518;50.742;4.226;2024-03-08T11:19:58;11.10;99.90
20714;DHT22;10518;50.742;4.226;2024-03-08T11:22:32;11.20;99.90
20714;DHT22;10518;50.742;4.226;2024-03-08T11:25:02;11.20;99.90
20714;DHT22;10518;50.742;4.226;2024-03-08T11:27:29;11.20;99.90
20714;DHT22;10518;50.742;4.226;2024-03-08T11:30:04;11.20;99.90
20714;DHT22;10518;50.742;4.226;2024-03-08T11:32:44;11.30;99.90
20714;DHT22;10518;50.742;4.226;2024-03-08T11:35:19;11.10;99.90
20714;DHT22;10518;50.742;4.226;2024-03-08T11:37:45;11.20;99.90
20714;DHT22;10518;50.742;4.226;2024-03-08T11:40:15;11.20;99.90
20714;DHT22;10518;50.742;4.226;2024-03-08T11:42:48;11.30;99.90
20714;DHT22;10518;50.742;4.226;2024-03-08T11:45:18;11.40;99.90
20714;DHT22;10518;50.742;4.226;2024-03-08T11:47:46;11.40;99.90
20714;DHT22;10518;50.742;4.226;2024-03-08T11:50:13;11.50;99.90
20714;DHT22;10518;50.742;4.226;2024-03-08T11:52:39;11.50;99.90
20714;DHT22;10518;50.742;4.226;2024-03-08T11:55:06;11.60;99.90
20714;DHT22;10518;50.742;4.226;2024-03-08T11:57:32;11.70;99.90
20714;DHT22;10518;50.742;4.226;2024-03-08T11:59:58;11.60;99.90
20714;DHT22;10518;50.742;4.226;2024-03-08T12:02:35;11.60;99.90
20714;DHT22;10518;50.742;4.226;2024-03-08T12:05:03;11.80;99.90
20714;DHT22;10518;50.742;4.226;2024-03-08T12:07:30;11.90;99.90
20714;DHT22;10518;50.742;4.226;2024-03-08T12:10:20;12.00;99.90
20714;DHT22;10518;50.742;4.226;2024-03-08T12:12:52;12.00;99.90
20714;DHT22;10518;50.742;4.226;2024-03-08T12:15:19;11.90;99.90
20714;DHT22;10518;50.742;4.226;2024-03-08T12:17:49;12.00;99.90
20714;DHT22;10518;50.742;4.226;2024-03-08T12:22:53;11.90;99.90
20714;DHT22;10518;50.742;4.226;2024-03-08T12:25:19;11.90;99.90
20714;DHT22;10518;50.742;4.226;2024-03-08T12:27:45;11.90;99.90
20714;DHT22;10518;50.742;4.226;2024-03-08T12:30:20;12.00;99.90
20714;DHT22;10518;50.742;4.226;2024-03-08T12:33:00;12.10;99.90
20714;DHT22;10518;50.742;4.226;2024-03-08T12:35:27;12.20;99.90
20714;DHT22;10518;50.742;4.226;2024-03-08T12:37:57;12.20;99.90
20714;DHT22;10518;50.742;4.226;2024-03-08T12:40:27;12.30;99.90
20714;DHT22;10518;50.742;4.226;2024-03-08T12:42:57;12.40;99.90
20714;DHT22;10518;50.742;4.226;2024-03-08T12:45:24;12.40;99.90
20714;DHT22;10518;50.742;4.226;2024-03-08T12:47:53;12.50;99.90
20714;DHT22;10518;50.742;4.226;2024-03-08T12:50:20;12.40;99.90
20714;DHT22;10518;50.742;4.226;2024-03-08T12:52:47;12.50;99.90
20714;DHT22;10518;50.742;4.226;2024-03-08T12:55:14;12.50;99.90
20714;DHT22;10518;50.742;4.226;2024-03-08T12:57:39;12.60;99.90
20714;DHT22;10518;50.742;4.226;2024-03-08T13:00:05;12.60;99.90
20714;DHT22;10518;50.742;4.226;2024-03-08T13:02:31;12.70;99.90
20714;DHT22;10518;50.742;4.226;2024-03-08T13:04:57;12.60;99.90
20714;DHT22;10518;50.742;4.226;2024-03-08T13:07:24;12.60;99.90
20714;DHT22;10518;50.742;4.226;2024-03-08T13:09:52;12.60;99.90
20714;DHT22;10518;50.742;4.226;2024-03-08T13:12:19;12.70;99.90
20714;DHT22;10518;50.742;4.226;2024-03-08T13:14:46;12.80;99.90
20714;DHT22;10518;50.742;4.226;2024-03-08T13:17:12;12.90;99.90
20714;DHT22;10518;50.742;4.226;2024-03-08T13:19:38;13.10;99.90
20714;DHT22;10518;50.742;4.226;2024-03-08T13:22:04;13.00;99.90
20714;DHT22;10518;50.742;4.226;2024-03-08T13:24:30;13.10;99.90
20714;DHT22;10518;50.742;4.226;2024-03-08T13:26:56;13.10;99.90
20714;DHT22;10518;50.742;4.226;2024-03-08T13:29:22;13.10;99.90
20714;DHT22;10518;50.742;4.226;2024-03-08T13:31:48;13.20;99.90
20714;DHT22;10518;50.742;4.226;2024-03-08T13:34:17;13.20;99.90
20714;DHT22;10518;50.742;4.226;2024-03-08T13:36:43;13.20;99.90
20714;DHT22;10518;50.742;4.226;2024-03-08T13:39:10;13.20;99.90
20714;DHT22;10518;50.742;4.226;2024-03-08T13:41:43;13.30;99.90
20714;DHT22;10518;50.742;4.226;2024-03-08T13:44:10;13.30;99.90
20714;DHT22;10518;50.742;4.226;2024-03-08T13:46:35;13.40;99.90
20714;DHT22;10518;50.742;4.226;2024-03-08T13:49:06;13.40;99.90
20714;DHT22;10518;50.742;4.226;2024-03-08T13:51:33;13.40;99.90
20714;DHT22;10518;50.742;4.226;2024-03-08T13:53:59;13.40;99.90
20714;DHT22;10518;50.742;4.226;2024-03-08T13:56:26;13.40;99.90
20714;DHT22;10518;50.742;4.226;2024-03-08T13:58:52;13.40;99.90
20714;DHT22;10518;50.742;4.226;2024-03-08T14:01:18;13.40;99.90
20714;DHT22;10518;50.742;4.226;2024-03-08T14:03:43;13.40;99.90
20714;DHT22;10518;50.742;4.226;2024-03-08T14:06:09;13.40;99.90
20714;DHT22;10518;50.742;4.226;2024-03-08T14:08:36;13.40;99.90
20714;DHT22;10518;50.742;4.226;2024-03-08T14:11:05;13.40;99.90
20714;DHT22;10518;50.742;4.226;2024-03-08T14:13:46;13.40;99.90
20714;DHT22;10518;50.742;4.226;2024-03-08T14:16:13;13.40;99.90
20714;DHT22;10518;50.742;4.226;2024-03-08T14:18:38;13.50;99.90
20714;DHT22;10518;50.742;4.226;2024-03-08T14:21:05;13.50;99.90
20714;DHT22;10518;50.742;4.226;2024-03-08T14:23:30;13.70;99.90
20714;DHT22;10518;50.742;4.226;2024-03-08T14:25:58;13.60;99.90
20714;DHT22;10518;50.742;4.226;2024-03-08T14:28:24;13.50;99.90
20714;DHT22;10518;50.742;4.226;2024-03-08T14:30:50;13.50;99.90
20714;DHT22;10518;50.742;4.226;2024-03-08T14:33:15;13.60;99.90
20714;DHT22;10518;50.742;4.226;2024-03-08T14:35:42;13.70;99.90
20714;DHT22;10518;50.742;4.226;2024-03-08T14:38:08;13.70;99.90
20714;DHT22;10518;50.742;4.226;2024-03-08T14:40:36;13.70;99.90
20714;DHT22;10518;50.742;4.226;2024-03-08T14:43:02;13.80;99.90
20714;DHT22;10518;50.742;4.226;2024-03-08T14:45:27;13.70;99.90
20714;DHT22;10518;50.742;4.226;2024-03-08T14:47:53;13.80;99.90
20714;DHT22;10518;50.742;4.226;2024-03-08T14:50:21;13.80;99.90
20714;DHT22;10518;50.742;4.226;2024-03-08T14:52:48;13.80;99.90
20714;DHT22;10518;50.742;4.226;2024-03-08T14:55:21;13.80;99.90
20714;DHT22;10518;50.742;4.226;2024-03-08T14:57:51;13.80;99.90
20714;DHT22;10518;50.742;4.226;2024-03-08T15:00:18;13.80;99.90
20714;DHT22;10518;50.742;4.226;2024-03-08T15:02:59;13.90;99.90
20714;DHT22;10518;50.742;4.226;2024-03-08T15:05:25;13.80;99.90
20714;DHT22;10518;50.742;4.226;2024-03-08T15:07:57;13.80;99.90
20714;DHT22;10518;50.742;4.226;2024-03-08T15:10:24;13.80;99.90
20714;DHT22;10518;50.742;4.226;2024-03-08T15:12:51;13.90;99.90
20714;DHT22;10518;50.742;4.226;2024-03-08T15:15:21;13.80;99.90
20714;DHT22;10518;50.742;4.226;2024-03-08T15:17:48;13.90;99.90
20714;DHT22;10518;50.742;4.226;2024-03-08T15:20:14;14.00;99.90
20714;DHT22;10518;50.742;4.226;2024-03-08T15:22:49;14.00;99.90
20714;DHT22;10518;50.742;4.226;2024-03-08T15:25:15;13.90;99.90
20714;DHT22;10518;50.742;4.226;2024-03-08T15:27:54;14.00;99.90
20714;DHT22;10518;50.742;4.226;2024-03-08T15:30:20;13.90;99.90
20714;DHT22;10518;50.742;4.226;2024-03-08T15:32:52;14.00;99.90
20714;DHT22;10518;50.742;4.226;2024-03-08T15:35:28;13.90;99.90
20714;DHT22;10518;50.742;4.226;2024-03-08T15:37:54;14.00;99.90
20714;DHT22;10518;50.742;4.226;2024-03-08T15:40:23;14.00;99.90
20714;DHT22;10518;50.742;4.226;2024-03-08T15:45:20;14.00;99.90
20714;DHT22;10518;50.742;4.226;2024-03-08T15:47:46;13.90;99.90
20714;DHT22;10518;50.742;4.226;2024-03-08T15:50:11;13.90;99.90
20714;DHT22;10518;50.742;4.226;2024-03-08T15:52:38;13.80;99.90